KDRT/DRT METAR and TAF weather

Enter ICAO airport designator
Station Type Date Time Source
KDRT METAR 2020/09/22 07:53 UTC NOAA

KDRT 220753Z AUTO 00000KT 10SM FEW055 OVC090 24/19 A3000 RMK AO2 SLP142 T02440189 TSNO


Station Type Date Time Source
KDRT Decoded METAR 2020/09/22 07:53 UTC NOAA

DEL RIO INTERNATIONAL AIRPORT, TX, United States (KDRT) 29-22N 100-55W 313M
Sep 22, 2020 - 03:53 AM EDT / 2020.09.22 0753 UTC
Wind: Calm:0
Visibility: 10 mile(s):0
Sky conditions: overcast
Temperature: 75.9 F (24.4 C)
Dew Point: 66.0 F (18.9 C)
Relative Humidity: 71%
Pressure (altimeter): 30 in. Hg (1015 hPa)
ob: KDRT 220753Z AUTO 00000KT 10SM FEW055 OVC090 24/19 A3000 RMK AO2 SLP142 T02440189 TSNO
cycle: 8

Station Type Date Time Source
KDRT TAF 2020/09/22 06:27 UTC NOAA

TAF KDRT 220525Z 2206/2306 33006KT P6SM OVC070
FM222000 36009KT P6SM SCT070

Example: see airport list